Time;durP1;ratioP1;P1;durP2;ratioP2;P2;SDS_P1;SDS_P2;PMS_P1;PMS_P2;Temp;Humidity;BMP_temperature;BMP_pressure;BME280_temperature;BME280_humidity;BME280_pressure;Samples;Min_cycle;Max_cycle;Signal;HPM_P1;HPM_P2
2024/02/16 00:00:11;;;;;;;9.55;3.60;;;;;;;16.43;66.34;100374.56;4993998;28;20422;-68
2024/02/16 00:02:40;;;;;;;7.60;3.50;;;;;;;16.35;66.39;100368.03;5007481;28;20512;-68
2024/02/16 00:05:08;;;;;;;7.43;3.53;;;;;;;16.33;66.56;100372.34;4974012;28;20065;-69
2024/02/16 00:07:37;;;;;;;6.50;3.58;;;;;;;16.38;66.63;100375.66;4989974;28;20556;-69
2024/02/16 00:10:06;;;;;;;10.27;3.92;;;;;;;16.46;66.18;100377.47;4988211;28;20042;-67
2024/02/16 00:12:34;;;;;;;7.93;3.65;;;;;;;16.46;66.20;100371.06;4996395;28;20347;-68
2024/02/16 00:15:02;;;;;;;9.88;2.97;;;;;;;16.54;65.94;100375.69;5023831;28;20049;-69
2024/02/16 00:17:30;;;;;;;10.18;3.20;;;;;;;16.53;66.29;100382.38;5024726;28;20053;-68
2024/02/16 00:19:57;;;;;;;8.38;3.15;;;;;;;16.42;66.16;100373.75;5018660;28;20061;-68
2024/02/16 00:22:25;;;;;;;11.13;3.10;;;;;;;16.60;66.00;100377.81;5008215;28;20076;-68
2024/02/16 00:24:53;;;;;;;15.05;3.20;;;;;;;16.63;65.62;100374.28;5005134;28;20092;-68
2024/02/16 00:27:20;;;;;;;13.02;3.22;;;;;;;16.86;65.28;100363.28;5023364;28;20056;-68
2024/02/16 00:29:47;;;;;;;10.13;3.03;;;;;;;16.65;65.44;100371.97;5017559;28;20786;-68
2024/02/16 00:32:15;;;;;;;6.18;2.83;;;;;;;16.61;65.74;100373.06;4979485;28;20390;-68
2024/02/16 00:34:43;;;;;;;8.02;2.97;;;;;;;16.47;66.21;100369.94;4975217;28;20049;-69
2024/02/16 00:37:11;;;;;;;7.70;2.95;;;;;;;16.45;66.90;100377.81;5012748;28;20050;-67
2024/02/16 00:39:42;;;;;;;7.03;3.10;;;;;;;16.67;66.21;100374.38;5008248;28;20053;-69
2024/02/16 00:42:09;;;;;;;;;;;;;;;16.85;65.54;100372.81;5008064;28;20072;-69
2024/02/16 00:44:36;;;;;;;8.02;2.85;;;;;;;16.96;65.33;100376.66;5000154;28;19964;-69
2024/02/16 00:47:09;;;;;;;8.65;3.00;;;;;;;17.08;64.96;100378.47;5000613;28;20056;-68
2024/02/16 00:49:36;;;;;;;8.15;2.85;;;;;;;17.13;64.92;100373.44;4994588;28;20042;-69
2024/02/16 00:52:04;;;;;;;8.57;2.83;;;;;;;16.90;65.44;100386.44;5014775;28;20054;-68
2024/02/16 00:54:32;;;;;;;5.28;2.70;;;;;;;16.77;66.31;100379.41;4994639;28;20046;-68
2024/02/16 00:57:02;;;;;;;6.10;2.88;;;;;;;16.57;67.13;100389.66;4990689;28;20058;-68
2024/02/16 00:59:30;;;;;;;7.97;2.78;;;;;;;16.51;67.87;100391.09;5012388;28;20069;-69
2024/02/16 01:01:57;;;;;;;9.25;2.80;;;;;;;16.83;66.81;100375.16;4990615;28;20060;-68
2024/02/16 01:04:25;;;;;;;7.57;3.13;;;;;;;16.70;67.09;100382.03;5022871;28;20053;-69
2024/02/16 01:06:52;;;;;;;13.38;3.00;;;;;;;16.68;67.99;100382.34;4992874;28;20057;-69
2024/02/16 01:09:20;;;;;;;7.35;2.92;;;;;;;16.76;67.42;100383.34;5012685;28;20054;-68
2024/02/16 01:11:47;;;;;;;8.00;2.80;;;;;;;16.64;68.27;100378.72;5016816;28;20050;-69
2024/02/16 01:14:15;;;;;;;7.30;2.72;;;;;;;16.80;67.99;100378.66;5026834;28;20850;-68
2024/02/16 01:16:42;;;;;;;8.48;2.83;;;;;;;16.74;68.14;100388.44;5011934;28;20703;-68
2024/02/16 01:19:09;;;;;;;10.98;3.30;;;;;;;16.91;67.43;100384.47;5009806;28;20524;-69
2024/02/16 01:21:38;;;;;;;7.43;2.83;;;;;;;16.95;67.57;100379.78;4993056;28;20758;-70
2024/02/16 01:24:05;;;;;;;6.82;2.70;;;;;;;16.86;67.69;100389.13;5002182;28;20528;-68
2024/02/16 01:26:33;;;;;;;8.60;2.88;;;;;;;16.72;68.20;100377.69;5028004;28;20057;-68
2024/02/16 01:29:02;;;;;;;6.47;3.00;;;;;;;16.78;68.71;100381.81;4993754;28;20488;-69
2024/02/16 01:31:29;;;;;;;6.63;2.50;;;;;;;16.82;68.40;100384.69;5009137;28;20049;-69
2024/02/16 01:33:57;;;;;;;8.70;3.28;;;;;;;16.73;68.97;100389.63;5021841;28;20434;-68
2024/02/16 01:36:25;;;;;;;9.50;3.17;;;;;;;16.64;69.36;100391.78;5016577;28;20062;-69
2024/02/16 01:38:52;;;;;;;11.05;2.75;;;;;;;16.53;69.98;100387.94;5001994;28;20822;-68
2024/02/16 01:41:19;;;;;;;7.65;3.47;;;;;;;16.54;69.95;100384.00;5010144;28;20060;-70
2024/02/16 01:43:47;;;;;;;8.02;2.88;;;;;;;16.39;70.56;100385.59;5010220;28;20049;-69
2024/02/16 01:46:14;;;;;;;5.93;2.72;;;;;;;16.74;70.19;100386.47;4992564;28;20446;-68
2024/02/16 01:48:41;;;;;;;8.00;3.38;;;;;;;16.54;69.83;100395.13;5010212;28;20054;-70
2024/02/16 01:51:09;;;;;;;8.20;3.33;;;;;;;16.45;70.96;100389.75;5008066;28;20074;-68
2024/02/16 01:53:38;;;;;;;10.23;3.05;;;;;;;16.38;71.19;100391.53;5006802;28;20045;-68
2024/02/16 01:56:05;;;;;;;8.63;3.30;;;;;;;16.40;71.44;100395.56;5002717;28;20050;-68
2024/02/16 01:58:33;;;;;;;9.80;3.35;;;;;;;16.30;71.45;100381.41;4994784;28;20544;-69
2024/02/16 02:01:01;;;;;;;7.93;3.13;;;;;;;16.34;71.56;100385.06;5013485;28;20049;-69
2024/02/16 02:03:28;;;;;;;8.20;3.67;;;;;;;16.28;72.06;100392.09;5011788;28;20042;-69
2024/02/16 02:05:56;;;;;;;7.50;2.95;;;;;;;16.40;72.00;100391.97;5024735;28;20061;-69
2024/02/16 02:08:26;;;;;;;7.57;3.20;;;;;;;16.62;70.82;100394.13;5008475;28;20045;-69
2024/02/16 02:10:53;;;;;;;7.40;3.42;;;;;;;16.52;71.01;100403.84;5021113;28;20058;-69
2024/02/16 02:13:21;;;;;;;10.15;3.17;;;;;;;16.39;71.27;100398.69;5006837;28;20466;-68
2024/02/16 02:15:49;;;;;;;8.68;3.33;;;;;;;16.49;71.53;100404.53;4999124;28;20061;-69
2024/02/16 02:18:17;;;;;;;6.30;3.22;;;;;;;16.31;71.91;100403.28;5010325;28;20156;-70
2024/02/16 02:20:45;;;;;;;7.68;3.20;;;;;;;16.49;72.07;100404.53;5009331;28;20058;-69
2024/02/16 02:23:13;;;;;;;8.00;3.22;;;;;;;16.38;72.71;100402.66;4974521;28;20434;-69
2024/02/16 02:25:40;;;;;;;7.70;3.05;;;;;;;16.50;72.00;100399.81;4994262;28;20053;-69
2024/02/16 02:28:08;;;;;;;7.28;3.20;;;;;;;16.38;72.00;100399.88;5001449;28;20827;-69
2024/02/16 02:30:35;;;;;;;10.23;3.47;;;;;;;16.08;73.93;100409.81;4990202;28;20054;-70
2024/02/16 02:33:06;;;;;;;10.15;3.65;;;;;;;16.04;74.31;100411.72;5005297;28;20536;-69
2024/02/16 02:35:34;;;;;;;8.18;3.58;;;;;;;16.08;74.24;100409.81;4988178;28;20063;-69
2024/02/16 02:38:02;;;;;;;6.50;3.20;;;;;;;16.23;74.16;100409.03;4971533;28;20062;-70
2024/02/16 02:40:29;;;;;;;10.48;3.45;;;;;;;16.17;73.78;100414.03;5003993;28;20060;-69
2024/02/16 02:42:57;;;;;;;11.20;3.60;;;;;;;16.20;74.37;100409.72;5008839;28;20057;-69
2024/02/16 02:45:24;;;;;;;8.88;3.45;;;;;;;16.23;74.35;100409.03;4991165;28;20054;-69
2024/02/16 02:47:51;;;;;;;7.57;3.17;;;;;;;16.33;74.80;100412.06;4990799;28;20062;-69
2024/02/16 02:50:19;;;;;;;9.65;3.22;;;;;;;16.23;74.64;100409.03;4998571;28;20050;-70
2024/02/16 02:52:46;;;;;;;7.53;2.78;;;;;;;16.07;75.78;100406.25;4989991;28;20053;-69
2024/02/16 02:55:14;;;;;;;10.25;3.28;;;;;;;16.18;75.79;100409.31;5007783;28;20053;-69
2024/02/16 02:57:41;;;;;;;7.80;3.13;;;;;;;16.18;76.44;100412.06;4974869;28;20057;-69
2024/02/16 03:00:10;;;;;;;7.47;3.20;;;;;;;16.14;76.78;100416.72;4997652;28;20049;-69
2024/02/16 03:02:43;;;;;;;7.47;3.30;;;;;;;15.97;77.48;100420.66;5007773;28;20041;-71
2024/02/16 03:05:11;;;;;;;6.93;3.17;;;;;;;16.20;77.56;100420.84;5008068;28;20673;-70
2024/02/16 03:07:38;;;;;;;7.50;3.22;;;;;;;16.34;76.77;100422.03;4991516;28;20046;-70
2024/02/16 03:10:09;;;;;;;7.70;3.25;;;;;;;16.36;76.51;100430.00;4987892;28;20738;-69
2024/02/16 03:12:36;;;;;;;12.10;3.45;;;;;;;16.10;77.39;100426.94;4991671;28;20056;-69
2024/02/16 03:15:04;;;;;;;9.65;3.60;;;;;;;16.17;77.61;100429.91;5024919;28;20060;-69
2024/02/16 03:17:32;;;;;;;10.60;3.22;;;;;;;16.26;77.37;100438.88;5011309;28;20049;-69
2024/02/16 03:19:59;;;;;;;7.30;3.40;;;;;;;16.33;77.40;100444.63;5008928;28;20637;-69
2024/02/16 03:22:26;;;;;;;10.45;3.42;;;;;;;16.12;78.27;100449.63;5001760;28;20049;-69
2024/02/16 03:24:54;;;;;;;10.23;3.55;;;;;;;16.06;78.94;100451.03;5005353;28;20052;-68
2024/02/16 03:27:21;;;;;;;8.02;3.58;;;;;;;16.23;78.57;100453.50;4997101;28;20049;-69
2024/02/16 03:29:48;;;;;;;7.30;3.30;;;;;;;16.08;78.98;100457.88;5021636;28;20092;-69
2024/02/16 03:32:16;;;;;;;7.03;3.28;;;;;;;16.06;79.22;100457.41;5007780;28;20061;-68
2024/02/16 03:34:44;;;;;;;9.13;3.50;;;;;;;16.34;78.41;100460.94;4989518;28;20045;-70
2024/02/16 03:37:11;;;;;;;9.23;3.50;;;;;;;16.21;78.51;100451.09;4987115;28;20057;-69
2024/02/16 03:39:39;;;;;;;9.65;3.78;;;;;;;16.33;78.18;100470.44;5005420;28;20045;-70
2024/02/16 03:42:06;;;;;;;9.68;3.30;;;;;;;16.11;79.06;100478.59;5018203;28;20057;-71
2024/02/16 03:44:34;;;;;;;8.40;3.30;;;;;;;15.89;80.48;100468.84;5017997;28;20049;-71
2024/02/16 03:47:01;;;;;;;8.40;2.83;;;;;;;15.95;80.87;100473.00;5007899;28;20050;-70
2024/02/16 03:49:28;;;;;;;11.32;3.63;;;;;;;16.14;79.78;100475.09;5008510;28;20092;-70
2024/02/16 03:51:56;;;;;;;6.88;2.75;;;;;;;16.09;79.93;100469.78;4990035;28;20053;-69
2024/02/16 03:54:23;;;;;;;7.70;3.15;;;;;;;16.20;79.81;100476.41;4990064;28;20061;-70
2024/02/16 03:56:54;;;;;;;7.88;3.00;;;;;;;16.14;80.09;100487.03;5007438;28;20058;-70
2024/02/16 03:59:23;;;;;;;8.05;3.53;;;;;;;16.17;79.37;100482.69;5009528;28;20493;-69
2024/02/16 04:01:51;;;;;;;9.25;3.40;;;;;;;16.32;79.35;100479.16;5004313;28;20049;-70
2024/02/16 04:04:19;;;;;;;8.70;3.00;;;;;;;16.30;79.32;100478.69;5014127;28;20060;-70
2024/02/16 04:06:49;;;;;;;7.75;3.03;;;;;;;16.39;79.00;100477.34;5005782;28;20545;-70
2024/02/16 04:09:16;;;;;;;10.23;2.95;;;;;;;16.28;79.62;100492.97;5011610;28;20054;-69
2024/02/16 04:11:45;;;;;;;5.38;2.90;;;;;;;16.23;79.61;100484.06;5001388;28;20093;-71
2024/02/16 04:14:12;;;;;;;8.88;3.10;;;;;;;16.07;80.22;100486.00;5009000;28;20050;-70
2024/02/16 04:16:43;;;;;;;11.05;3.20;;;;;;;16.46;79.86;100482.28;5014907;28;20050;-69
2024/02/16 04:19:10;;;;;;;10.38;3.47;;;;;;;16.09;80.75;100492.03;5013176;28;20046;-69
2024/02/16 04:21:38;;;;;;;12.13;3.38;;;;;;;15.96;81.69;100488.50;4989955;28;20053;-70
2024/02/16 04:24:06;;;;;;;10.93;3.30;;;;;;;15.86;82.28;100491.78;4968411;28;20053;-68
2024/02/16 04:26:33;;;;;;;7.50;3.03;;;;;;;15.95;82.32;100495.22;5008125;28;20061;-68
2024/02/16 04:29:01;;;;;;;11.88;3.65;;;;;;;15.86;83.03;100496.53;4978828;28;20054;-71
2024/02/16 04:31:28;;;;;;;12.68;3.60;;;;;;;15.75;83.38;100494.25;5018851;28;20057;-69
2024/02/16 04:33:55;;;;;;;14.05;3.10;;;;;;;15.66;84.07;100512.22;4974713;28;20488;-69
2024/02/16 04:36:23;;;;;;;9.82;3.05;;;;;;;15.85;84.04;100514.38;5007448;28;20058;-70
2024/02/16 04:38:50;;;;;;;7.70;3.33;;;;;;;15.81;84.01;100524.56;4985499;28;20057;-69
2024/02/16 04:41:20;;;;;;;9.07;3.28;;;;;;;15.99;83.35;100529.44;4998392;28;20061;-68
2024/02/16 04:43:47;;;;;;;9.30;3.43;;;;;;;15.97;82.89;100526.22;4989155;28;20072;-69
2024/02/16 04:46:17;;;;;;;8.05;3.50;;;;;;;15.86;83.96;100532.63;5018648;28;20296;-69
2024/02/16 04:48:45;;;;;;;8.32;3.30;;;;;;;15.97;83.59;100542.09;5000352;28;20073;-69
2024/02/16 04:51:12;;;;;;;9.90;3.25;;;;;;;15.91;83.92;100544.31;5000111;28;20050;-69
2024/02/16 04:53:39;;;;;;;15.85;3.90;;;;;;;16.03;82.71;100555.38;5023577;28;20058;-70
2024/02/16 04:56:07;;;;;;;10.95;3.17;;;;;;;16.12;82.83;100549.66;4993087;28;20050;-69
2024/02/16 04:58:34;;;;;;;9.23;3.17;;;;;;;16.10;82.89;100560.31;4998699;28;20096;-69
2024/02/16 05:01:02;;;;;;;11.45;3.63;;;;;;;15.85;83.86;100569.91;4991531;28;20053;-69
2024/02/16 05:03:29;;;;;;;12.18;3.75;;;;;;;15.77;84.78;100568.88;4998632;28;20047;-69
2024/02/16 05:05:57;;;;;;;7.40;3.22;;;;;;;15.62;85.73;100575.19;5005126;28;20057;-70
2024/02/16 05:08:24;;;;;;;9.45;3.75;;;;;;;15.61;86.17;100577.16;5011573;28;20054;-69
2024/02/16 05:10:51;;;;;;;10.30;3.22;;;;;;;15.81;85.81;100588.44;5006739;28;20050;-69
2024/02/16 05:13:19;;;;;;;13.80;3.97;;;;;;;16.10;83.41;100588.09;4989855;28;20050;-70
2024/02/16 05:15:48;;;;;;;8.98;3.40;;;;;;;15.83;84.93;100584.13;5009148;28;20061;-68
2024/02/16 05:18:16;;;;;;;11.43;3.83;;;;;;;15.88;85.09;100585.88;5010106;28;20056;-70
2024/02/16 05:20:44;;;;;;;10.05;3.50;;;;;;;15.95;84.97;100588.84;5007899;28;20046;-69
2024/02/16 05:23:11;;;;;;;12.40;3.38;;;;;;;16.10;84.11;100593.66;4989251;28;20065;-69
2024/02/16 05:25:38;;;;;;;12.02;3.97;;;;;;;15.98;84.75;100599.25;5010780;28;20050;-69
2024/02/16 05:28:06;;;;;;;14.40;3.90;;;;;;;16.00;84.23;100606.09;5016374;28;20057;-69
2024/02/16 05:30:33;;;;;;;16.02;3.70;;;;;;;16.09;84.01;100606.72;5024406;28;20060;-70
2024/02/16 05:33:00;;;;;;;9.02;3.63;;;;;;;15.90;84.64;100605.78;5009997;28;20050;-69
2024/02/16 05:35:28;;;;;;;11.48;4.05;;;;;;;15.88;85.43;100619.19;5009529;28;20050;-70
2024/02/16 05:37:56;;;;;;;9.00;3.40;;;;;;;15.98;84.81;100621.47;5016430;28;20058;-69
2024/02/16 05:40:30;;;;;;;16.25;4.43;;;;;;;15.94;84.87;100626.94;5007455;28;20045;-71
2024/02/16 05:42:58;;;;;;;11.63;3.67;;;;;;;15.84;85.75;100621.06;5010378;28;20053;-70
2024/02/16 05:45:28;;;;;;;10.95;3.80;;;;;;;15.82;86.20;100632.53;5009703;28;20166;-69
2024/02/16 05:47:56;;;;;;;11.48;3.63;;;;;;;15.83;86.75;100628.56;5009383;28;20069;-68
2024/02/16 05:50:23;;;;;;;10.77;3.72;;;;;;;15.86;86.18;100622.34;5010535;28;20066;-70
2024/02/16 05:52:51;;;;;;;11.52;3.85;;;;;;;15.75;86.69;100629.53;5015256;28;20741;-70
2024/02/16 05:55:19;;;;;;;8.85;3.92;;;;;;;16.23;84.46;100621.03;5015115;28;20061;-70
2024/02/16 05:57:46;;;;;;;10.13;3.90;;;;;;;16.19;83.61;100625.72;4993873;28;20058;-70
2024/02/16 06:00:15;;;;;;;11.00;3.60;;;;;;;15.98;85.22;100641.75;5010425;28;20041;-69
2024/02/16 06:02:43;;;;;;;10.18;3.60;;;;;;;15.75;86.26;100635.06;5018764;28;20046;-69
2024/02/16 06:05:10;;;;;;;11.68;3.78;;;;;;;15.91;85.97;100646.28;4998278;28;20481;-68
2024/02/16 06:07:38;;;;;;;8.43;3.65;;;;;;;16.10;85.26;100649.22;4991335;28;20054;-70
2024/02/16 06:10:10;;;;;;;13.27;4.05;;;;;;;15.69;86.80;100656.72;4991097;28;20060;-69
2024/02/16 06:12:39;;;;;;;11.52;4.40;;;;;;;15.72;87.05;100656.03;4992476;28;20065;-70
2024/02/16 06:15:07;;;;;;;15.77;3.97;;;;;;;15.66;87.90;100657.41;4993239;28;20050;-69
2024/02/16 06:17:36;;;;;;;10.43;3.88;;;;;;;15.86;87.85;100668.75;4996104;28;20057;-69
2024/02/16 06:20:05;;;;;;;12.57;4.07;;;;;;;15.99;87.40;100673.13;4992360;28;20072;-69
2024/02/16 06:22:33;;;;;;;15.65;3.95;;;;;;;16.15;85.36;100685.94;5020381;28;20698;-69
2024/02/16 06:25:00;;;;;;;13.48;5.15;;;;;;;15.81;86.92;100686.47;5009512;28;20038;-69
2024/02/16 06:27:28;;;;;;;15.30;4.15;;;;;;;15.99;87.27;100690.59;5009764;28;20080;-71
2024/02/16 06:29:55;;;;;;;13.65;4.10;;;;;;;15.88;87.04;100692.25;5009868;28;20049;-69
2024/02/16 06:32:23;;;;;;;10.15;4.05;;;;;;;15.67;88.16;100697.91;5018703;28;20050;-69
2024/02/16 06:34:51;;;;;;;12.52;3.88;;;;;;;16.05;87.21;100708.66;4997261;28;20057;-69
2024/02/16 06:37:18;;;;;;;13.23;4.57;;;;;;;16.04;87.26;100704.22;4992447;28;20058;-68
2024/02/16 06:39:46;;;;;;;11.85;3.28;;;;;;;16.20;86.65;100709.88;5010885;28;20065;-70
2024/02/16 06:42:14;;;;;;;12.27;4.07;;;;;;;15.93;87.06;100705.88;4992552;28;20050;-68
2024/02/16 06:44:41;;;;;;;13.77;3.92;;;;;;;15.86;87.60;100719.56;4997114;28;20054;-68
2024/02/16 06:47:08;;;;;;;14.80;4.28;;;;;;;15.96;87.43;100718.25;5022334;28;20064;-69
2024/02/16 06:49:35;;;;;;;16.77;4.82;;;;;;;16.16;86.68;100722.88;4992162;28;20058;-69
2024/02/16 06:52:04;;;;;;;11.32;3.53;;;;;;;16.41;85.51;100729.97;5008341;28;20120;-68
2024/02/16 06:54:31;;;;;;;17.23;4.85;;;;;;;16.30;85.50;100740.75;5014999;28;20053;-69
2024/02/16 06:56:59;;;;;;;15.90;4.38;;;;;;;16.12;86.80;100733.88;5010159;28;20180;-69
2024/02/16 06:59:26;;;;;;;16.75;4.22;;;;;;;16.15;86.87;100726.78;5010377;28;20058;-69
2024/02/16 07:01:53;;;;;;;11.95;3.70;;;;;;;16.12;87.08;100733.06;5003881;28;20060;-69
2024/02/16 07:04:20;;;;;;;12.07;3.97;;;;;;;16.20;86.87;100734.88;5010614;28;20058;-69
2024/02/16 07:06:48;;;;;;;16.90;4.57;;;;;;;16.16;87.16;100739.53;5010496;28;20057;-68
2024/02/16 07:09:15;;;;;;;12.35;3.85;;;;;;;16.03;87.51;100741.53;5015928;28;20053;-69
2024/02/16 07:11:46;;;;;;;14.63;3.75;;;;;;;16.09;87.40;100742.88;5009239;28;20045;-69
2024/02/16 07:14:17;;;;;;;18.00;4.93;;;;;;;15.89;88.57;100754.97;5009254;28;20065;-68
2024/02/16 07:16:45;;;;;;;11.60;3.85;;;;;;;15.74;89.37;100762.00;4994537;28;20610;-69
2024/02/16 07:19:12;;;;;;;12.05;3.72;;;;;;;15.85;89.52;100773.47;5010441;28;20049;-69
2024/02/16 07:21:41;;;;;;;17.23;3.50;;;;;;;15.74;89.72;100775.91;5017189;28;20049;-68
2024/02/16 07:24:08;;;;;;;12.85;3.72;;;;;;;15.67;90.53;100785.97;5016378;28;20390;-68
2024/02/16 07:26:36;;;;;;;8.73;3.22;;;;;;;15.75;90.02;100777.53;5016446;28;20061;-69
2024/02/16 07:29:04;;;;;;;8.65;3.05;;;;;;;15.79;89.78;100783.22;5012987;28;20598;-68
2024/02/16 07:31:35;;;;;;;10.90;3.40;;;;;;;15.97;89.18;100781.81;5017506;28;20054;-68
2024/02/16 07:34:02;;;;;;;12.98;3.60;;;;;;;15.97;88.63;100795.69;5008950;28;20068;-68
2024/02/16 07:36:31;;;;;;;14.35;3.35;;;;;;;16.00;88.29;100800.56;5009765;28;20509;-69
2024/02/16 07:38:59;;;;;;;11.20;2.90;;;;;;;15.86;88.28;100800.09;5002170;28;20049;-68
2024/02/16 07:41:27;;;;;;;14.32;3.35;;;;;;;15.65;89.71;100799.41;5011195;28;20057;-69
2024/02/16 07:43:55;;;;;;;15.35;2.83;;;;;;;15.78;89.60;100812.13;5008641;28;20057;-68
2024/02/16 07:46:22;;;;;;;14.15;3.70;;;;;;;15.75;90.03;100821.97;5017434;28;20046;-68
2024/02/16 07:48:50;;;;;;;14.15;3.58;;;;;;;15.95;89.26;100831.38;4990382;28;20050;-68
2024/02/16 07:51:18;;;;;;;10.20;3.10;;;;;;;16.10;88.60;100835.41;5015079;28;20056;-69
2024/02/16 07:53:46;;;;;;;14.55;3.28;;;;;;;16.06;88.57;100829.72;5010774;28;20067;-67
2024/02/16 07:56:14;;;;;;;10.07;3.10;;;;;;;16.07;87.69;100836.94;5011239;28;20049;-70
2024/02/16 07:58:43;;;;;;;12.68;2.78;;;;;;;16.19;87.36;100836.94;4980471;28;20052;-70
2024/02/16 08:01:15;;;;;;;12.45;3.08;;;;;;;16.35;86.33;100839.81;5001625;28;20053;-67
2024/02/16 08:03:43;;;;;;;10.75;2.80;;;;;;;16.46;86.03;100843.72;4987875;28;20050;-68
2024/02/16 08:06:10;;;;;;;19.15;2.80;;;;;;;16.56;84.93;100844.09;4958271;28;20062;-70
2024/02/16 08:08:38;;;;;;;12.23;2.50;;;;;;;16.53;84.53;100844.78;5017998;28;20499;-70
2024/02/16 08:11:05;;;;;;;10.98;2.75;;;;;;;16.15;85.46;100846.28;4992922;28;20467;-70
2024/02/16 08:13:33;;;;;;;10.27;2.53;;;;;;;16.18;86.14;100857.53;4992239;28;20057;-68
2024/02/16 08:16:06;;;;;;;11.82;2.80;;;;;;;16.31;84.81;100861.13;5000079;28;20472;-69
2024/02/16 08:18:34;;;;;;;13.80;2.67;;;;;;;16.12;85.39;100860.88;5002439;28;20046;-69
2024/02/16 08:21:02;;;;;;;7.57;1.95;;;;;;;16.13;86.22;100862.50;4984928;28;20053;-68
2024/02/16 08:23:31;;;;;;;10.40;2.53;;;;;;;15.99;86.30;100865.63;5007680;28;20050;-70
2024/02/16 08:25:58;;;;;;;8.93;2.60;;;;;;;16.20;85.79;100868.28;4988647;28;20877;-69
2024/02/16 08:28:25;;;;;;;13.52;2.90;;;;;;;16.58;82.95;100874.34;4968565;28;20072;-70
2024/02/16 08:30:53;;;;;;;12.45;3.65;;;;;;;16.43;83.61;100873.06;5016562;28;20064;-70
2024/02/16 08:33:20;;;;;;;8.77;2.55;;;;;;;16.32;83.18;100880.22;5004360;28;20053;-70
2024/02/16 08:35:54;;;;;;;11.65;3.00;;;;;;;16.22;84.62;100882.66;4973704;28;20062;-68
2024/02/16 08:38:21;;;;;;;8.82;2.30;;;;;;;16.08;85.51;100890.53;4969750;28;20497;-69
2024/02/16 08:40:51;;;;;;;13.77;2.65;;;;;;;16.16;85.04;100889.63;4991192;28;20061;-68
2024/02/16 08:43:19;;;;;;;8.45;2.38;;;;;;;16.21;84.43;100900.50;4977522;28;20045;-70
2024/02/16 08:45:47;;;;;;;7.90;2.13;;;;;;;16.14;84.88;100903.03;4968807;28;20066;-68
2024/02/16 08:48:14;;;;;;;9.00;1.88;;;;;;;15.99;85.84;100898.97;4978280;28;20057;-69
2024/02/16 08:50:42;;;;;;;12.13;2.10;;;;;;;16.10;85.41;100904.88;4997867;28;20045;-69
2024/02/16 08:53:10;;;;;;;10.02;2.20;;;;;;;16.04;85.54;100911.84;4982690;28;20051;-68
2024/02/16 08:55:39;;;;;;;9.18;2.28;;;;;;;16.34;85.29;100916.00;4995300;28;20065;-72
2024/02/16 08:58:09;;;;;;;13.02;2.50;;;;;;;16.22;84.55;100916.81;4979580;28;20058;-69
2024/02/16 09:00:37;;;;;;;9.50;1.80;;;;;;;16.08;86.28;100921.09;4993058;28;20060;-68
2024/02/16 09:03:06;;;;;;;14.00;2.70;;;;;;;16.15;85.28;100924.94;4978587;28;20592;-69
2024/02/16 09:05:34;;;;;;;8.43;1.80;;;;;;;16.15;85.75;100929.66;4995346;28;20153;-70
2024/02/16 09:08:06;;;;;;;8.98;2.67;;;;;;;16.00;86.04;100928.38;5003372;28;20050;-70
2024/02/16 09:10:34;;;;;;;8.65;2.15;;;;;;;16.01;86.40;100931.94;4995314;28;20042;-70
2024/02/16 09:13:04;;;;;;;8.57;2.15;;;;;;;16.06;86.96;100937.28;5008345;28;20509;-69
2024/02/16 09:15:32;;;;;;;10.45;2.05;;;;;;;16.07;86.47;100934.19;4998272;28;20043;-69
2024/02/16 09:18:00;;;;;;;12.98;2.88;;;;;;;16.33;85.58;100940.25;4995839;28;20528;-70
2024/02/16 09:20:27;;;;;;;9.85;2.08;;;;;;;16.35;85.21;100939.88;4965043;28;20058;-70
2024/02/16 09:22:55;;;;;;;12.02;2.63;;;;;;;16.18;85.69;100951.22;4990183;28;20062;-69
2024/02/16 09:25:23;;;;;;;19.95;2.45;;;;;;;16.28;85.88;100950.78;4984885;28;20050;-70
2024/02/16 09:27:50;;;;;;;12.55;4.45;;;;;;;16.11;86.32;100959.31;4983098;28;20058;-69
2024/02/16 09:30:21;;;;;;;10.85;2.30;;;;;;;16.25;86.43;100962.59;4992500;28;20073;-69
2024/02/16 09:32:49;;;;;;;11.43;2.08;;;;;;;16.33;87.06;100968.03;4993900;28;20430;-68
2024/02/16 09:35:16;;;;;;;8.57;2.35;;;;;;;16.09;87.89;100975.53;5009065;28;20066;-69
2024/02/16 09:37:43;;;;;;;9.75;2.42;;;;;;;15.99;88.79;100973.19;5014719;28;20065;-69
2024/02/16 09:40:15;;;;;;;8.90;2.05;;;;;;;15.97;90.88;100975.50;5005517;28;20066;-66
2024/02/16 09:42:42;;;;;;;10.95;2.33;;;;;;;15.84;91.96;100971.88;5018172;28;20060;-68
2024/02/16 09:45:11;;;;;;;8.70;1.85;;;;;;;15.83;92.64;100980.53;5019164;28;20173;-66
2024/02/16 09:47:39;;;;;;;16.73;2.65;;;;;;;15.92;92.39;100982.06;5011558;28;20068;-69
2024/02/16 09:50:10;;;;;;;13.15;2.60;;;;;;;15.80;93.14;100990.34;4999631;28;20053;-68
2024/02/16 09:52:38;;;;;;;10.65;2.30;;;;;;;15.97;92.99;101000.50;5018191;28;20054;-68
2024/02/16 09:55:10;;;;;;;11.90;2.30;;;;;;;16.04;92.76;101007.09;5011541;28;20054;-69
2024/02/16 09:57:37;;;;;;;7.05;2.30;;;;;;;16.12;93.78;101003.44;5006066;28;20053;-69
2024/02/16 10:00:05;;;;;;;10.23;2.50;;;;;;;15.81;94.97;101018.94;4996098;28;20398;-68
2024/02/16 10:02:41;;;;;;;11.57;2.50;;;;;;;15.77;96.39;101016.88;4982719;28;20069;-68
2024/02/16 10:05:16;;;;;;;14.45;3.03;;;;;;;15.52;99.06;101029.00;4994724;28;20050;-67
2024/02/16 10:07:44;;;;;;;13.52;3.40;;;;;;;15.50;98.53;101025.75;4994881;28;20057;-68
2024/02/16 10:10:25;;;;;;;6.95;2.50;;;;;;;15.77;98.16;101036.31;4992367;28;20056;-68
2024/02/16 10:13:04;;;;;;;11.20;2.22;;;;;;;15.52;98.83;101042.06;5004136;28;20046;-66
2024/02/16 10:15:34;;;;;;;20.00;3.15;;;;;;;15.33;100.00;101056.38;5009250;28;20049;-68
2024/02/16 10:18:04;;;;;;;10.45;2.42;;;;;;;15.33;100.00;101050.81;5004697;28;20054;-68
2024/02/16 10:20:33;;;;;;;11.00;2.70;;;;;;;15.35;100.00;101050.50;5007762;28;20045;-68
2024/02/16 10:23:10;;;;;;;13.20;2.47;;;;;;;15.26;100.00;101064.44;5011391;28;20049;-67
2024/02/16 10:25:40;;;;;;;11.65;2.83;;;;;;;14.99;100.00;101081.56;4989766;28;20056;-70
2024/02/16 10:28:10;;;;;;;12.40;3.95;;;;;;;14.67;100.00;101087.72;4984837;28;20134;-68
2024/02/16 10:30:40;;;;;;;10.23;3.80;;;;;;;13.67;100.00;101105.75;5025808;28;20054;-69
2024/02/16 10:33:08;;;;;;;8.95;4.57;;;;;;;13.54;100.00;101113.09;5000640;28;20790;-69
2024/02/16 10:35:36;;;;;;;10.95;6.40;;;;;;;13.24;100.00;101108.47;4997135;28;20072;-67
2024/02/16 10:38:10;;;;;;;9.27;5.80;;;;;;;13.21;100.00;101114.66;5003433;28;20658;-67
2024/02/16 10:40:39;;;;;;;10.45;6.53;;;;;;;13.21;100.00;101120.19;5012837;28;20061;-68
2024/02/16 10:43:09;;;;;;;9.70;6.43;;;;;;;13.37;100.00;101132.41;4990810;28;20057;-69
2024/02/16 10:45:38;;;;;;;9.77;7.32;;;;;;;13.18;100.00;101140.16;5006310;28;20290;-70
2024/02/16 10:48:06;;;;;;;12.80;7.47;;;;;;;13.10;100.00;101146.50;4992413;28;20061;-67
2024/02/16 10:50:37;;;;;;;10.85;8.02;;;;;;;13.10;100.00;101152.03;5009162;28;20062;-66
2024/02/16 10:53:12;;;;;;;12.60;7.97;;;;;;;13.17;100.00;101163.44;4993983;28;20422;-65
2024/02/16 10:55:40;;;;;;;11.85;8.77;;;;;;;12.93;100.00;101159.38;4993982;28;20049;-67
2024/02/16 10:58:07;;;;;;;11.98;8.95;;;;;;;13.05;100.00;101167.94;4975694;28;20048;-68
2024/02/16 11:00:35;;;;;;;18.17;9.95;;;;;;;13.06;100.00;101181.44;5015028;28;20054;-67
2024/02/16 11:03:05;;;;;;;16.30;10.05;;;;;;;12.94;100.00;101170.13;4994807;28;20061;-68
2024/02/16 11:05:36;;;;;;;14.85;10.48;;;;;;;13.08;100.00;101176.41;5012840;28;20051;-69
2024/02/16 11:08:05;;;;;;;12.15;8.65;;;;;;;13.09;100.00;101185.53;5019263;28;20046;-68
2024/02/16 11:10:33;;;;;;;13.68;9.25;;;;;;;13.11;100.00;101184.06;4987701;28;20482;-69
2024/02/16 11:13:03;;;;;;;12.32;9.80;;;;;;;13.58;100.00;101182.47;5010791;28;20054;-68
2024/02/16 11:15:32;;;;;;;12.65;9.23;;;;;;;13.30;100.00;101179.09;4990288;28;20049;-69
2024/02/16 11:18:01;;;;;;;11.25;9.10;;;;;;;13.44;100.00;101185.31;5010863;28;20051;-68
2024/02/16 11:20:29;;;;;;;15.50;9.43;;;;;;;13.43;100.00;101180.94;5005586;28;20346;-68
2024/02/16 11:23:07;;;;;;;14.15;9.07;;;;;;;13.00;100.00;101207.59;4993418;28;20529;-68